sensor_id;sensor_type;location;lat;lon;timestamp;P1;durP1;ratioP1;P2;durP2;ratioP2
3589;SDS011;1809;48.470;9.226;2022-11-03T00:02:21;14.90;;;10.00;;
3589;SDS011;1809;48.470;9.226;2022-11-03T00:04:46;18.70;;;9.57;;
3589;SDS011;1809;48.470;9.226;2022-11-03T00:07:11;21.43;;;8.60;;
3589;SDS011;1809;48.470;9.226;2022-11-03T00:09:36;22.87;;;9.60;;
3589;SDS011;1809;48.470;9.226;2022-11-03T00:12:02;17.43;;;9.30;;
3589;SDS011;1809;48.470;9.226;2022-11-03T00:14:28;17.17;;;9.80;;
3589;SDS011;1809;48.470;9.226;2022-11-03T00:16:53;15.40;;;8.83;;
3589;SDS011;1809;48.470;9.226;2022-11-03T00:19:19;17.80;;;8.13;;
3589;SDS011;1809;48.470;9.226;2022-11-03T00:21:44;14.80;;;8.63;;
3589;SDS011;1809;48.470;9.226;2022-11-03T00:24:10;28.80;;;8.83;;
3589;SDS011;1809;48.470;9.226;2022-11-03T00:26:37;15.70;;;8.17;;
3589;SDS011;1809;48.470;9.226;2022-11-03T00:29:06;20.23;;;8.47;;
3589;SDS011;1809;48.470;9.226;2022-11-03T00:31:37;16.00;;;8.23;;
3589;SDS011;1809;48.470;9.226;2022-11-03T00:34:04;15.47;;;8.87;;
3589;SDS011;1809;48.470;9.226;2022-11-03T00:36:31;15.47;;;8.67;;
3589;SDS011;1809;48.470;9.226;2022-11-03T00:39:02;11.13;;;6.10;;
3589;SDS011;1809;48.470;9.226;2022-11-03T00:41:27;12.33;;;6.10;;
3589;SDS011;1809;48.470;9.226;2022-11-03T00:43:53;18.77;;;8.37;;
3589;SDS011;1809;48.470;9.226;2022-11-03T00:46:20;15.23;;;6.93;;
3589;SDS011;1809;48.470;9.226;2022-11-03T00:48:46;8.80;;;6.33;;
3589;SDS011;1809;48.470;9.226;2022-11-03T00:51:16;12.23;;;6.43;;
3589;SDS011;1809;48.470;9.226;2022-11-03T00:53:44;9.90;;;6.57;;
3589;SDS011;1809;48.470;9.226;2022-11-03T00:56:15;14.27;;;6.70;;
3589;SDS011;1809;48.470;9.226;2022-11-03T00:59:02;10.00;;;7.17;;
3589;SDS011;1809;48.470;9.226;2022-11-03T01:01:29;10.37;;;6.20;;
3589;SDS011;1809;48.470;9.226;2022-11-03T01:04:05;16.00;;;7.07;;
3589;SDS011;1809;48.470;9.226;2022-11-03T01:06:50;11.30;;;7.03;;
3589;SDS011;1809;48.470;9.226;2022-11-03T01:09:37;12.87;;;7.77;;
3589;SDS011;1809;48.470;9.226;2022-11-03T01:12:13;15.80;;;7.97;;
3589;SDS011;1809;48.470;9.226;2022-11-03T01:17:10;17.17;;;7.30;;
3589;SDS011;1809;48.470;9.226;2022-11-03T01:19:40;18.43;;;7.47;;
3589;SDS011;1809;48.470;9.226;2022-11-03T01:22:06;9.57;;;7.37;;
3589;SDS011;1809;48.470;9.226;2022-11-03T01:24:33;12.90;;;7.67;;
3589;SDS011;1809;48.470;9.226;2022-11-03T01:26:59;11.43;;;7.37;;
3589;SDS011;1809;48.470;9.226;2022-11-03T01:29:24;11.80;;;7.23;;
3589;SDS011;1809;48.470;9.226;2022-11-03T01:31:49;13.97;;;8.27;;
3589;SDS011;1809;48.470;9.226;2022-11-03T01:34:16;14.67;;;8.70;;
3589;SDS011;1809;48.470;9.226;2022-11-03T01:36:43;18.47;;;8.50;;
3589;SDS011;1809;48.470;9.226;2022-11-03T01:39:09;12.80;;;8.03;;
3589;SDS011;1809;48.470;9.226;2022-11-03T01:41:36;16.13;;;8.43;;
3589;SDS011;1809;48.470;9.226;2022-11-03T01:46:30;15.60;;;8.27;;
3589;SDS011;1809;48.470;9.226;2022-11-03T01:48:59;16.70;;;8.23;;
3589;SDS011;1809;48.470;9.226;2022-11-03T01:51:28;12.53;;;8.20;;
3589;SDS011;1809;48.470;9.226;2022-11-03T01:53:57;17.00;;;10.67;;
3589;SDS011;1809;48.470;9.226;2022-11-03T01:56:28;13.60;;;9.73;;
3589;SDS011;1809;48.470;9.226;2022-11-03T01:58:55;16.70;;;11.77;;
3589;SDS011;1809;48.470;9.226;2022-11-03T02:01:20;20.43;;;11.47;;
3589;SDS011;1809;48.470;9.226;2022-11-03T02:03:50;20.00;;;12.60;;
3589;SDS011;1809;48.470;9.226;2022-11-03T02:06:22;21.67;;;13.33;;
3589;SDS011;1809;48.470;9.226;2022-11-03T02:08:57;21.63;;;12.60;;
3589;SDS011;1809;48.470;9.226;2022-11-03T02:11:27;19.93;;;13.70;;
3589;SDS011;1809;48.470;9.226;2022-11-03T02:14:12;18.80;;;13.20;;
3589;SDS011;1809;48.470;9.226;2022-11-03T02:16:38;21.80;;;14.07;;
3589;SDS011;1809;48.470;9.226;2022-11-03T02:19:05;31.40;;;14.10;;
3589;SDS011;1809;48.470;9.226;2022-11-03T02:22:02;18.70;;;12.60;;
3589;SDS011;1809;48.470;9.226;2022-11-03T02:24:48;24.40;;;14.50;;
3589;SDS011;1809;48.470;9.226;2022-11-03T02:27:23;27.17;;;13.20;;
3589;SDS011;1809;48.470;9.226;2022-11-03T02:29:48;33.97;;;14.57;;
3589;SDS011;1809;48.470;9.226;2022-11-03T02:32:23;20.47;;;13.47;;
3589;SDS011;1809;48.470;9.226;2022-11-03T02:37:36;25.47;;;12.17;;
3589;SDS011;1809;48.470;9.226;2022-11-03T02:40:11;21.97;;;13.53;;
3589;SDS011;1809;48.470;9.226;2022-11-03T02:42:41;28.17;;;12.30;;
3589;SDS011;1809;48.470;9.226;2022-11-03T02:45:10;21.87;;;12.90;;
3589;SDS011;1809;48.470;9.226;2022-11-03T02:47:39;21.83;;;13.00;;
3589;SDS011;1809;48.470;9.226;2022-11-03T02:50:07;25.63;;;13.30;;
3589;SDS011;1809;48.470;9.226;2022-11-03T02:52:38;23.67;;;13.53;;
3589;SDS011;1809;48.470;9.226;2022-11-03T02:55:08;18.27;;;13.40;;
3589;SDS011;1809;48.470;9.226;2022-11-03T02:57:45;22.47;;;13.70;;
3589;SDS011;1809;48.470;9.226;2022-11-03T03:00:19;23.90;;;13.20;;
3589;SDS011;1809;48.470;9.226;2022-11-03T03:03:05;21.33;;;12.83;;
3589;SDS011;1809;48.470;9.226;2022-11-03T03:05:36;29.33;;;13.60;;
3589;SDS011;1809;48.470;9.226;2022-11-03T03:08:06;22.30;;;13.07;;
3589;SDS011;1809;48.470;9.226;2022-11-03T03:10:37;16.70;;;11.90;;
3589;SDS011;1809;48.470;9.226;2022-11-03T03:13:05;30.63;;;13.43;;
3589;SDS011;1809;48.470;9.226;2022-11-03T03:20:59;17.43;;;11.13;;
3589;SDS011;1809;48.470;9.226;2022-11-03T03:23:32;17.97;;;11.20;;
3589;SDS011;1809;48.470;9.226;2022-11-03T03:26:06;20.40;;;12.87;;
3589;SDS011;1809;48.470;9.226;2022-11-03T03:31:03;25.83;;;12.37;;
3589;SDS011;1809;48.470;9.226;2022-11-03T03:33:32;20.93;;;12.10;;
3589;SDS011;1809;48.470;9.226;2022-11-03T03:36:00;16.00;;;11.90;;
3589;SDS011;1809;48.470;9.226;2022-11-03T03:38:29;19.77;;;12.17;;
3589;SDS011;1809;48.470;9.226;2022-11-03T03:40:58;21.20;;;12.57;;
3589;SDS011;1809;48.470;9.226;2022-11-03T03:43:24;19.90;;;12.03;;
3589;SDS011;1809;48.470;9.226;2022-11-03T03:45:53;23.17;;;13.60;;
3589;SDS011;1809;48.470;9.226;2022-11-03T03:48:22;24.17;;;13.67;;
3589;SDS011;1809;48.470;9.226;2022-11-03T03:50:47;17.10;;;11.63;;
3589;SDS011;1809;48.470;9.226;2022-11-03T03:53:15;20.20;;;11.70;;
3589;SDS011;1809;48.470;9.226;2022-11-03T03:55:43;28.73;;;11.90;;
3589;SDS011;1809;48.470;9.226;2022-11-03T03:58:12;20.03;;;10.90;;
3589;SDS011;1809;48.470;9.226;2022-11-03T04:00:39;22.30;;;12.83;;
3589;SDS011;1809;48.470;9.226;2022-11-03T04:03:07;17.50;;;11.77;;
3589;SDS011;1809;48.470;9.226;2022-11-03T04:05:38;19.93;;;12.40;;
3589;SDS011;1809;48.470;9.226;2022-11-03T04:08:04;20.40;;;12.30;;
3589;SDS011;1809;48.470;9.226;2022-11-03T04:10:29;18.00;;;12.77;;
3589;SDS011;1809;48.470;9.226;2022-11-03T04:12:54;25.83;;;12.57;;
3589;SDS011;1809;48.470;9.226;2022-11-03T04:15:38;20.57;;;12.53;;
3589;SDS011;1809;48.470;9.226;2022-11-03T04:18:15;26.87;;;13.90;;
3589;SDS011;1809;48.470;9.226;2022-11-03T04:21:00;29.90;;;12.97;;
3589;SDS011;1809;48.470;9.226;2022-11-03T04:23:44;19.30;;;12.40;;
3589;SDS011;1809;48.470;9.226;2022-11-03T04:26:13;22.90;;;10.87;;
3589;SDS011;1809;48.470;9.226;2022-11-03T04:28:41;22.90;;;11.93;;
3589;SDS011;1809;48.470;9.226;2022-11-03T04:31:14;27.30;;;13.27;;
3589;SDS011;1809;48.470;9.226;2022-11-03T04:33:41;20.67;;;12.90;;
3589;SDS011;1809;48.470;9.226;2022-11-03T04:36:23;22.43;;;12.93;;
3589;SDS011;1809;48.470;9.226;2022-11-03T04:38:49;20.63;;;11.87;;
3589;SDS011;1809;48.470;9.226;2022-11-03T04:41:22;19.03;;;12.60;;
3589;SDS011;1809;48.470;9.226;2022-11-03T04:43:49;17.10;;;12.10;;
3589;SDS011;1809;48.470;9.226;2022-11-03T04:46:16;21.20;;;11.60;;
3589;SDS011;1809;48.470;9.226;2022-11-03T04:48:48;18.43;;;10.90;;
3589;SDS011;1809;48.470;9.226;2022-11-03T04:51:15;20.97;;;11.63;;
3589;SDS011;1809;48.470;9.226;2022-11-03T04:54:04;16.43;;;10.60;;
3589;SDS011;1809;48.470;9.226;2022-11-03T04:56:30;21.50;;;11.00;;
3589;SDS011;1809;48.470;9.226;2022-11-03T04:58:56;18.30;;;12.13;;
3589;SDS011;1809;48.470;9.226;2022-11-03T05:01:22;28.97;;;11.93;;
3589;SDS011;1809;48.470;9.226;2022-11-03T05:03:49;23.97;;;11.13;;
3589;SDS011;1809;48.470;9.226;2022-11-03T05:06:23;20.20;;;10.67;;
3589;SDS011;1809;48.470;9.226;2022-11-03T05:08:52;14.80;;;10.53;;
3589;SDS011;1809;48.470;9.226;2022-11-03T05:11:33;15.93;;;11.00;;
3589;SDS011;1809;48.470;9.226;2022-11-03T05:14:02;21.73;;;10.67;;
3589;SDS011;1809;48.470;9.226;2022-11-03T05:16:37;15.20;;;10.17;;
3589;SDS011;1809;48.470;9.226;2022-11-03T05:19:03;15.00;;;12.00;;
3589;SDS011;1809;48.470;9.226;2022-11-03T05:21:32;20.00;;;11.10;;
3589;SDS011;1809;48.470;9.226;2022-11-03T05:24:00;21.93;;;13.20;;
3589;SDS011;1809;48.470;9.226;2022-11-03T05:26:28;22.57;;;11.60;;
3589;SDS011;1809;48.470;9.226;2022-11-03T05:28:57;17.97;;;11.67;;
3589;SDS011;1809;48.470;9.226;2022-11-03T05:31:33;18.30;;;12.10;;
3589;SDS011;1809;48.470;9.226;2022-11-03T05:34:01;17.90;;;11.17;;
3589;SDS011;1809;48.470;9.226;2022-11-03T05:36:35;16.73;;;11.40;;
3589;SDS011;1809;48.470;9.226;2022-11-03T05:40:05;16.70;;;11.03;;
3589;SDS011;1809;48.470;9.226;2022-11-03T05:42:42;20.10;;;10.83;;
3589;SDS011;1809;48.470;9.226;2022-11-03T05:45:24;22.77;;;11.63;;
3589;SDS011;1809;48.470;9.226;2022-11-03T05:47:52;13.23;;;10.03;;
3589;SDS011;1809;48.470;9.226;2022-11-03T05:50:20;27.07;;;11.33;;
3589;SDS011;1809;48.470;9.226;2022-11-03T05:52:50;21.23;;;11.10;;
3589;SDS011;1809;48.470;9.226;2022-11-03T05:55:24;15.53;;;10.00;;
3589;SDS011;1809;48.470;9.226;2022-11-03T05:57:57;16.33;;;10.60;;
3589;SDS011;1809;48.470;9.226;2022-11-03T06:00:29;17.60;;;11.37;;
3589;SDS011;1809;48.470;9.226;2022-11-03T06:02:57;26.37;;;12.60;;
3589;SDS011;1809;48.470;9.226;2022-11-03T06:05:24;17.17;;;11.60;;
3589;SDS011;1809;48.470;9.226;2022-11-03T06:07:54;23.20;;;11.73;;
3589;SDS011;1809;48.470;9.226;2022-11-03T06:12:48;22.90;;;14.27;;
3589;SDS011;1809;48.470;9.226;2022-11-03T06:15:26;22.30;;;10.80;;
3589;SDS011;1809;48.470;9.226;2022-11-03T06:17:53;24.67;;;10.20;;
3589;SDS011;1809;48.470;9.226;2022-11-03T06:20:19;21.10;;;10.47;;
3589;SDS011;1809;48.470;9.226;2022-11-03T06:22:46;17.37;;;8.50;;
3589;SDS011;1809;48.470;9.226;2022-11-03T06:27:54;17.70;;;8.80;;
3589;SDS011;1809;48.470;9.226;2022-11-03T06:30:25;13.03;;;8.63;;
3589;SDS011;1809;48.470;9.226;2022-11-03T06:32:53;12.33;;;6.90;;
3589;SDS011;1809;48.470;9.226;2022-11-03T06:35:22;18.93;;;8.10;;
3589;SDS011;1809;48.470;9.226;2022-11-03T06:37:48;9.03;;;7.43;;
3589;SDS011;1809;48.470;9.226;2022-11-03T06:42:39;11.23;;;8.10;;
3589;SDS011;1809;48.470;9.226;2022-11-03T06:45:11;18.67;;;7.47;;
3589;SDS011;1809;48.470;9.226;2022-11-03T06:47:44;11.30;;;6.53;;
3589;SDS011;1809;48.470;9.226;2022-11-03T06:50:27;12.97;;;6.70;;
3589;SDS011;1809;48.470;9.226;2022-11-03T06:52:55;9.80;;;6.10;;
3589;SDS011;1809;48.470;9.226;2022-11-03T06:55:32;13.57;;;6.60;;
3589;SDS011;1809;48.470;9.226;2022-11-03T06:58:01;11.00;;;6.30;;
3589;SDS011;1809;48.470;9.226;2022-11-03T07:00:36;12.00;;;6.40;;
3589;SDS011;1809;48.470;9.226;2022-11-03T07:03:13;7.70;;;6.03;;
3589;SDS011;1809;48.470;9.226;2022-11-03T07:05:46;8.00;;;5.03;;
3589;SDS011;1809;48.470;9.226;2022-11-03T07:13:39;5.40;;;4.30;;
3589;SDS011;1809;48.470;9.226;2022-11-03T07:16:11;11.60;;;6.20;;
3589;SDS011;1809;48.470;9.226;2022-11-03T07:18:38;11.80;;;5.33;;
3589;SDS011;1809;48.470;9.226;2022-11-03T07:24:04;7.37;;;5.20;;
3589;SDS011;1809;48.470;9.226;2022-11-03T07:26:40;4.43;;;4.10;;
3589;SDS011;1809;48.470;9.226;2022-11-03T07:29:07;6.73;;;4.60;;
3589;SDS011;1809;48.470;9.226;2022-11-03T07:31:36;7.00;;;4.73;;
3589;SDS011;1809;48.470;9.226;2022-11-03T07:34:04;9.53;;;4.70;;
3589;SDS011;1809;48.470;9.226;2022-11-03T07:36:34;8.63;;;5.27;;
3589;SDS011;1809;48.470;9.226;2022-11-03T07:39:00;8.60;;;4.23;;
3589;SDS011;1809;48.470;9.226;2022-11-03T07:41:27;10.47;;;4.20;;
3589;SDS011;1809;48.470;9.226;2022-11-03T07:43:56;5.30;;;4.80;;
3589;SDS011;1809;48.470;9.226;2022-11-03T07:46:23;6.27;;;4.80;;
3589;SDS011;1809;48.470;9.226;2022-11-03T07:48:52;6.00;;;5.27;;
3589;SDS011;1809;48.470;9.226;2022-11-03T07:51:27;20.57;;;9.43;;
3589;SDS011;1809;48.470;9.226;2022-11-03T07:56:44;15.70;;;9.70;;
3589;SDS011;1809;48.470;9.226;2022-11-03T07:59:15;19.23;;;8.60;;
3589;SDS011;1809;48.470;9.226;2022-11-03T08:01:44;11.93;;;6.20;;
3589;SDS011;1809;48.470;9.226;2022-11-03T08:04:17;5.17;;;4.57;;
3589;SDS011;1809;48.470;9.226;2022-11-03T08:06:45;6.43;;;5.67;;
3589;SDS011;1809;48.470;9.226;2022-11-03T08:09:10;7.90;;;5.67;;
3589;SDS011;1809;48.470;9.226;2022-11-03T08:11:36;18.50;;;8.77;;
3589;SDS011;1809;48.470;9.226;2022-11-03T08:14:02;13.03;;;8.60;;
3589;SDS011;1809;48.470;9.226;2022-11-03T08:16:28;11.00;;;7.63;;
3589;SDS011;1809;48.470;9.226;2022-11-03T08:18:53;12.80;;;8.47;;
3589;SDS011;1809;48.470;9.226;2022-11-03T08:21:19;9.30;;;7.20;;
3589;SDS011;1809;48.470;9.226;2022-11-03T08:23:44;9.47;;;7.53;;
3589;SDS011;1809;48.470;9.226;2022-11-03T08:26:10;18.37;;;7.90;;
3589;SDS011;1809;48.470;9.226;2022-11-03T08:28:35;13.30;;;7.57;;
3589;SDS011;1809;48.470;9.226;2022-11-03T08:31:00;12.27;;;8.90;;
3589;SDS011;1809;48.470;9.226;2022-11-03T08:33:32;12.00;;;7.80;;
3589;SDS011;1809;48.470;9.226;2022-11-03T08:35:59;13.77;;;7.30;;
3589;SDS011;1809;48.470;9.226;2022-11-03T08:38:25;10.40;;;7.13;;
3589;SDS011;1809;48.470;9.226;2022-11-03T08:40:51;8.33;;;7.20;;
3589;SDS011;1809;48.470;9.226;2022-11-03T08:43:16;8.50;;;6.90;;
3589;SDS011;1809;48.470;9.226;2022-11-03T08:45:42;11.40;;;7.90;;
3589;SDS011;1809;48.470;9.226;2022-11-03T08:48:07;13.63;;;9.97;;
3589;SDS011;1809;48.470;9.226;2022-11-03T08:50:33;17.23;;;11.13;;
3589;SDS011;1809;48.470;9.226;2022-11-03T08:52:58;18.47;;;10.53;;
3589;SDS011;1809;48.470;9.226;2022-11-03T08:55:24;10.17;;;8.53;;
3589;SDS011;1809;48.470;9.226;2022-11-03T08:57:49;11.77;;;8.60;;
3589;SDS011;1809;48.470;9.226;2022-11-03T09:00:15;16.13;;;10.17;;
3589;SDS011;1809;48.470;9.226;2022-11-03T09:02:41;11.43;;;8.57;;
3589;SDS011;1809;48.470;9.226;2022-11-03T09:05:07;10.13;;;8.10;;
3589;SDS011;1809;48.470;9.226;2022-11-03T09:07:34;11.40;;;7.90;;
3589;SDS011;1809;48.470;9.226;2022-11-03T09:09:59;9.53;;;7.67;;
3589;SDS011;1809;48.470;9.226;2022-11-03T09:12:24;19.90;;;9.30;;
3589;SDS011;1809;48.470;9.226;2022-11-03T09:14:50;13.10;;;8.10;;
3589;SDS011;1809;48.470;9.226;2022-11-03T09:17:15;10.10;;;7.63;;
3589;SDS011;1809;48.470;9.226;2022-11-03T09:19:40;18.13;;;8.27;;
3589;SDS011;1809;48.470;9.226;2022-11-03T09:22:06;14.53;;;8.37;;
3589;SDS011;1809;48.470;9.226;2022-11-03T09:24:31;10.70;;;8.87;;
3589;SDS011;1809;48.470;9.226;2022-11-03T09:26:56;11.90;;;7.63;;
3589;SDS011;1809;48.470;9.226;2022-11-03T09:29:22;15.30;;;8.17;;
3589;SDS011;1809;48.470;9.226;2022-11-03T09:31:47;15.00;;;8.20;;
3589;SDS011;1809;48.470;9.226;2022-11-03T09:34:13;12.00;;;7.67;;
3589;SDS011;1809;48.470;9.226;2022-11-03T09:36:38;8.20;;;6.27;;
3589;SDS011;1809;48.470;9.226;2022-11-03T09:39:04;10.07;;;7.27;;
3589;SDS011;1809;48.470;9.226;2022-11-03T09:41:29;12.43;;;7.20;;
3589;SDS011;1809;48.470;9.226;2022-11-03T09:43:56;8.30;;;6.70;;
3589;SDS011;1809;48.470;9.226;2022-11-03T09:46:22;13.33;;;6.60;;
3589;SDS011;1809;48.470;9.226;2022-11-03T09:48:49;15.00;;;6.33;;
3589;SDS011;1809;48.470;9.226;2022-11-03T09:51:19;11.57;;;6.60;;
3589;SDS011;1809;48.470;9.226;2022-11-03T09:53:46;11.37;;;5.70;;
3589;SDS011;1809;48.470;9.226;2022-11-03T09:56:12;7.27;;;4.80;;
3589;SDS011;1809;48.470;9.226;2022-11-03T09:58:37;6.40;;;5.80;;
3589;SDS011;1809;48.470;9.226;2022-11-03T10:01:04;12.60;;;6.17;;
3589;SDS011;1809;48.470;9.226;2022-11-03T10:03:30;8.67;;;5.80;;
3589;SDS011;1809;48.470;9.226;2022-11-03T10:05:56;10.13;;;5.97;;
3589;SDS011;1809;48.470;9.226;2022-11-03T10:08:31;8.23;;;6.07;;
3589;SDS011;1809;48.470;9.226;2022-11-03T10:10:59;5.40;;;4.93;;
3589;SDS011;1809;48.470;9.226;2022-11-03T10:15:53;13.20;;;5.47;;
3589;SDS011;1809;48.470;9.226;2022-11-03T10:18:19;12.70;;;6.30;;
3589;SDS011;1809;48.470;9.226;2022-11-03T10:20:45;9.40;;;5.67;;
3589;SDS011;1809;48.470;9.226;2022-11-03T10:23:10;20.83;;;7.73;;
3589;SDS011;1809;48.470;9.226;2022-11-03T10:25:37;23.07;;;8.47;;
3589;SDS011;1809;48.470;9.226;2022-11-03T10:28:18;13.57;;;7.20;;
3589;SDS011;1809;48.470;9.226;2022-11-03T10:30:50;7.33;;;6.30;;
3589;SDS011;1809;48.470;9.226;2022-11-03T10:33:26;14.10;;;6.30;;
3589;SDS011;1809;48.470;9.226;2022-11-03T10:35:59;14.17;;;6.97;;
3589;SDS011;1809;48.470;9.226;2022-11-03T10:38:30;12.13;;;6.90;;
3589;SDS011;1809;48.470;9.226;2022-11-03T10:41:14;24.77;;;8.80;;
3589;SDS011;1809;48.470;9.226;2022-11-03T10:43:41;16.07;;;7.40;;
3589;SDS011;1809;48.470;9.226;2022-11-03T10:46:12;25.73;;;8.60;;
3589;SDS011;1809;48.470;9.226;2022-11-03T10:48:42;35.20;;;9.73;;
3589;SDS011;1809;48.470;9.226;2022-11-03T10:51:11;32.40;;;7.83;;
3589;SDS011;1809;48.470;9.226;2022-11-03T10:53:37;14.10;;;6.50;;
3589;SDS011;1809;48.470;9.226;2022-11-03T10:56:03;9.30;;;6.07;;
3589;SDS011;1809;48.470;9.226;2022-11-03T10:58:29;11.90;;;6.77;;
3589;SDS011;1809;48.470;9.226;2022-11-03T11:00:56;9.60;;;7.00;;
3589;SDS011;1809;48.470;9.226;2022-11-03T11:03:21;12.40;;;7.57;;
3589;SDS011;1809;48.470;9.226;2022-11-03T11:05:47;14.30;;;7.97;;
3589;SDS011;1809;48.470;9.226;2022-11-03T11:08:13;13.80;;;7.30;;
3589;SDS011;1809;48.470;9.226;2022-11-03T11:10:43;12.13;;;8.10;;
3589;SDS011;1809;48.470;9.226;2022-11-03T11:15:50;17.40;;;7.67;;
3589;SDS011;1809;48.470;9.226;2022-11-03T11:20:51;11.73;;;7.57;;
3589;SDS011;1809;48.470;9.226;2022-11-03T11:26:05;8.83;;;6.80;;
3589;SDS011;1809;48.470;9.226;2022-11-03T11:28:41;12.43;;;6.50;;
3589;SDS011;1809;48.470;9.226;2022-11-03T11:34:08;11.30;;;9.00;;
3589;SDS011;1809;48.470;9.226;2022-11-03T11:36:46;12.50;;;7.27;;
3589;SDS011;1809;48.470;9.226;2022-11-03T11:42:14;11.97;;;7.63;;
3589;SDS011;1809;48.470;9.226;2022-11-03T11:47:40;21.50;;;8.57;;
3589;SDS011;1809;48.470;9.226;2022-11-03T11:52:41;18.50;;;10.30;;
3589;SDS011;1809;48.470;9.226;2022-11-03T11:57:55;17.50;;;10.50;;
3589;SDS011;1809;48.470;9.226;2022-11-03T12:00:26;16.30;;;10.80;;
3589;SDS011;1809;48.470;9.226;2022-11-03T12:02:57;20.83;;;12.23;;
3589;SDS011;1809;48.470;9.226;2022-11-03T12:05:25;11.40;;;8.40;;
3589;SDS011;1809;48.470;9.226;2022-11-03T12:07:54;15.67;;;9.10;;
3589;SDS011;1809;48.470;9.226;2022-11-03T12:10:21;17.20;;;8.30;;
3589;SDS011;1809;48.470;9.226;2022-11-03T12:12:50;15.23;;;9.83;;
3589;SDS011;1809;48.470;9.226;2022-11-03T12:18:40;3.87;;;3.10;;
3589;SDS011;1809;48.470;9.226;2022-11-03T12:21:08;5.63;;;4.33;;
3589;SDS011;1809;48.470;9.226;2022-11-03T12:26:02;9.00;;;3.17;;
3589;SDS011;1809;48.470;9.226;2022-11-03T12:28:30;7.30;;;3.80;;
3589;SDS011;1809;48.470;9.226;2022-11-03T12:30:56;15.63;;;8.90;;
3589;SDS011;1809;48.470;9.226;2022-11-03T12:33:21;16.60;;;8.70;;
3589;SDS011;1809;48.470;9.226;2022-11-03T12:35:46;15.53;;;7.67;;
3589;SDS011;1809;48.470;9.226;2022-11-03T12:38:12;15.63;;;7.50;;
3589;SDS011;1809;48.470;9.226;2022-11-03T12:40:37;11.37;;;6.53;;
3589;SDS011;1809;48.470;9.226;2022-11-03T12:43:02;6.90;;;4.60;;
3589;SDS011;1809;48.470;9.226;2022-11-03T12:45:28;2.90;;;2.50;;
3589;SDS011;1809;48.470;9.226;2022-11-03T12:47:53;3.50;;;2.93;;
3589;SDS011;1809;48.470;9.226;2022-11-03T12:50:18;2.47;;;2.27;;
3589;SDS011;1809;48.470;9.226;2022-11-03T12:52:44;6.13;;;2.60;;
3589;SDS011;1809;48.470;9.226;2022-11-03T12:55:09;4.97;;;3.60;;
3589;SDS011;1809;48.470;9.226;2022-11-03T12:57:35;3.07;;;2.10;;
3589;SDS011;1809;48.470;9.226;2022-11-03T13:00:00;3.03;;;2.83;;
3589;SDS011;1809;48.470;9.226;2022-11-03T13:02:26;3.90;;;3.30;;
3589;SDS011;1809;48.470;9.226;2022-11-03T13:04:51;4.33;;;3.50;;
3589;SDS011;1809;48.470;9.226;2022-11-03T13:07:16;2.73;;;2.47;;
3589;SDS011;1809;48.470;9.226;2022-11-03T13:09:42;4.60;;;2.80;;
3589;SDS011;1809;48.470;9.226;2022-11-03T13:12:08;5.43;;;3.27;;
3589;SDS011;1809;48.470;9.226;2022-11-03T13:15:00;2.80;;;2.60;;
3589;SDS011;1809;48.470;9.226;2022-11-03T13:17:27;6.00;;;2.90;;
3589;SDS011;1809;48.470;9.226;2022-11-03T13:19:53;3.40;;;2.50;;
3589;SDS011;1809;48.470;9.226;2022-11-03T13:22:18;4.30;;;3.40;;
3589;SDS011;1809;48.470;9.226;2022-11-03T13:24:44;4.60;;;3.30;;
3589;SDS011;1809;48.470;9.226;2022-11-03T13:27:09;10.33;;;5.07;;
3589;SDS011;1809;48.470;9.226;2022-11-03T13:29:35;4.10;;;2.47;;
3589;SDS011;1809;48.470;9.226;2022-11-03T13:32:00;4.07;;;3.03;;
3589;SDS011;1809;48.470;9.226;2022-11-03T13:34:27;3.80;;;2.50;;
3589;SDS011;1809;48.470;9.226;2022-11-03T13:36:53;3.43;;;3.03;;
3589;SDS011;1809;48.470;9.226;2022-11-03T13:39:18;3.53;;;3.23;;
3589;SDS011;1809;48.470;9.226;2022-11-03T13:41:43;3.00;;;2.80;;
3589;SDS011;1809;48.470;9.226;2022-11-03T13:44:09;5.27;;;4.73;;
3589;SDS011;1809;48.470;9.226;2022-11-03T13:46:34;9.70;;;3.80;;
3589;SDS011;1809;48.470;9.226;2022-11-03T13:49:00;4.23;;;3.53;;
3589;SDS011;1809;48.470;9.226;2022-11-03T13:51:25;5.33;;;3.77;;
3589;SDS011;1809;48.470;9.226;2022-11-03T13:53:50;4.93;;;3.50;;
3589;SDS011;1809;48.470;9.226;2022-11-03T13:56:16;4.10;;;3.43;;
3589;SDS011;1809;48.470;9.226;2022-11-03T13:58:41;3.57;;;3.27;;
3589;SDS011;1809;48.470;9.226;2022-11-03T14:01:06;3.93;;;3.57;;
3589;SDS011;1809;48.470;9.226;2022-11-03T14:03:32;4.00;;;3.40;;
3589;SDS011;1809;48.470;9.226;2022-11-03T14:05:57;7.43;;;3.00;;
3589;SDS011;1809;48.470;9.226;2022-11-03T14:08:22;4.27;;;3.87;;
3589;SDS011;1809;48.470;9.226;2022-11-03T14:10:48;7.50;;;3.80;;
3589;SDS011;1809;48.470;9.226;2022-11-03T14:13:13;5.33;;;4.17;;
3589;SDS011;1809;48.470;9.226;2022-11-03T14:15:38;4.97;;;3.33;;
3589;SDS011;1809;48.470;9.226;2022-11-03T14:18:04;3.73;;;3.40;;
3589;SDS011;1809;48.470;9.226;2022-11-03T14:20:29;5.60;;;3.53;;
3589;SDS011;1809;48.470;9.226;2022-11-03T14:22:54;6.17;;;4.37;;
3589;SDS011;1809;48.470;9.226;2022-11-03T14:25:20;4.20;;;3.80;;
3589;SDS011;1809;48.470;9.226;2022-11-03T14:27:45;4.37;;;3.83;;
3589;SDS011;1809;48.470;9.226;2022-11-03T14:30:11;4.90;;;3.33;;
3589;SDS011;1809;48.470;9.226;2022-11-03T14:32:37;4.00;;;3.60;;
3589;SDS011;1809;48.470;9.226;2022-11-03T14:35:02;7.57;;;4.57;;
3589;SDS011;1809;48.470;9.226;2022-11-03T14:37:28;7.17;;;5.07;;
3589;SDS011;1809;48.470;9.226;2022-11-03T14:39:54;5.73;;;4.97;;
3589;SDS011;1809;48.470;9.226;2022-11-03T14:42:19;4.60;;;4.17;;
3589;SDS011;1809;48.470;9.226;2022-11-03T14:44:45;4.27;;;3.73;;
3589;SDS011;1809;48.470;9.226;2022-11-03T14:47:12;5.40;;;3.70;;
3589;SDS011;1809;48.470;9.226;2022-11-03T14:49:38;3.73;;;3.33;;
3589;SDS011;1809;48.470;9.226;2022-11-03T14:52:04;9.23;;;4.50;;
3589;SDS011;1809;48.470;9.226;2022-11-03T14:54:31;4.53;;;4.13;;
3589;SDS011;1809;48.470;9.226;2022-11-03T14:56:57;10.20;;;4.80;;
3589;SDS011;1809;48.470;9.226;2022-11-03T14:59:22;5.40;;;4.90;;
3589;SDS011;1809;48.470;9.226;2022-11-03T15:01:48;5.30;;;4.80;;
3589;SDS011;1809;48.470;9.226;2022-11-03T15:04:15;5.70;;;5.20;;
3589;SDS011;1809;48.470;9.226;2022-11-03T15:06:41;6.63;;;4.30;;
3589;SDS011;1809;48.470;9.226;2022-11-03T15:09:07;6.20;;;5.20;;
3589;SDS011;1809;48.470;9.226;2022-11-03T15:11:33;4.77;;;4.40;;
3589;SDS011;1809;48.470;9.226;2022-11-03T15:13:58;7.57;;;5.50;;
3589;SDS011;1809;48.470;9.226;2022-11-03T15:16:24;13.03;;;5.20;;
3589;SDS011;1809;48.470;9.226;2022-11-03T15:18:50;9.67;;;6.83;;
3589;SDS011;1809;48.470;9.226;2022-11-03T15:21:15;10.73;;;6.50;;
3589;SDS011;1809;48.470;9.226;2022-11-03T15:23:41;9.70;;;6.20;;
3589;SDS011;1809;48.470;9.226;2022-11-03T15:26:07;8.50;;;6.97;;
3589;SDS011;1809;48.470;9.226;2022-11-03T15:28:32;7.17;;;6.40;;
3589;SDS011;1809;48.470;9.226;2022-11-03T15:30:58;9.70;;;7.00;;
3589;SDS011;1809;48.470;9.226;2022-11-03T15:33:24;14.17;;;8.57;;
3589;SDS011;1809;48.470;9.226;2022-11-03T15:35:49;10.20;;;7.67;;
3589;SDS011;1809;48.470;9.226;2022-11-03T15:38:15;11.03;;;9.10;;
3589;SDS011;1809;48.470;9.226;2022-11-03T15:40:40;14.37;;;8.77;;
3589;SDS011;1809;48.470;9.226;2022-11-03T15:43:06;13.83;;;9.20;;
3589;SDS011;1809;48.470;9.226;2022-11-03T15:45:32;9.00;;;7.90;;
3589;SDS011;1809;48.470;9.226;2022-11-03T15:47:57;15.03;;;9.20;;
3589;SDS011;1809;48.470;9.226;2022-11-03T15:53:27;8.60;;;7.73;;
3589;SDS011;1809;48.470;9.226;2022-11-03T15:55:52;15.40;;;10.83;;
3589;SDS011;1809;48.470;9.226;2022-11-03T15:58:17;12.17;;;8.63;;
3589;SDS011;1809;48.470;9.226;2022-11-03T16:00:43;11.90;;;9.17;;
3589;SDS011;1809;48.470;9.226;2022-11-03T16:03:08;25.77;;;14.97;;
3589;SDS011;1809;48.470;9.226;2022-11-03T16:08:02;12.30;;;8.27;;
3589;SDS011;1809;48.470;9.226;2022-11-03T16:10:28;14.07;;;8.50;;
3589;SDS011;1809;48.470;9.226;2022-11-03T16:12:53;10.90;;;8.43;;
3589;SDS011;1809;48.470;9.226;2022-11-03T16:15:18;13.17;;;8.87;;
3589;SDS011;1809;48.470;9.226;2022-11-03T16:17:44;18.73;;;8.80;;
3589;SDS011;1809;48.470;9.226;2022-11-03T16:20:09;12.37;;;8.60;;